Zeus — V2OR — position and weather

sailwx.info

Track history (hours):
 
Tides and Currents Weather Stations Pressure Air Temp Water Temp Dewpoint Dewpoint Depression Visibility Wind Speed Wind Dir Waves Ship Positions

Zeus

Last reported at 2017-Nov-24 12:54 UTC. Time now 2017-Nov-24 13:03 UTC.
Position N 62°03' E 005°31'.

Length 89 m; draft 3.6 m.

Type: Cargo ship. MMSI: 304011025.

Date/timePositionNaut miles runAvg speedWind from/ knotsBaromVisibWave heightAir tempDewpointWater temp
2017-Nov-24 12:54N 62°03' E 005°31'0 0.0
2017-Nov-24 12:24N 62°03' E 005°31'0 0.1
2017-Nov-24 11:55N 62°03' E 005°31'0 0.0
2017-Nov-24 11:24N 62°03' E 005°31'0 0.0
2017-Nov-24 10:57N 62°03' E 005°31'0 0.0
2017-Nov-24 10:30N 62°03' E 005°31'0 0.0
2017-Nov-24 10:01N 62°03' E 005°31'0 0.0
2017-Nov-24 09:28N 62°03' E 005°31'0 0.0
2017-Nov-24 09:01N 62°03' E 005°31'0 0.0
2017-Nov-24 08:31N 62°03' E 005°31'0 0.0
2017-Nov-24 08:01N 62°03' E 005°31'0 0.0
2017-Nov-24 07:31N 62°03' E 005°31'0 0.0
2017-Nov-24 06:57N 62°03' E 005°31'0 0.0
2017-Nov-24 06:31N 62°03' E 005°31'0 0.0
2017-Nov-24 06:01N 62°03' E 005°31'0 0.1
2017-Nov-24 05:31N 62°03' E 005°31'0 0.0
2017-Nov-24 05:01N 62°03' E 005°31'0 0.0
2017-Nov-24 04:31N 62°03' E 005°31'0 0.0
2017-Nov-24 04:00N 62°03' E 005°31'0 0.0
2017-Nov-24 03:28N 62°03' E 005°31'0 0.0
2017-Nov-24 02:58N 62°03' E 005°31'0 0.0
2017-Nov-24 02:29N 62°03' E 005°31'0 0.0
2017-Nov-24 01:59N 62°03' E 005°31'0 0.0
2017-Nov-24 01:25N 62°03' E 005°31'0 0.0
2017-Nov-24 00:59N 62°03' E 005°31'0 0.0
2017-Nov-24 00:25N 62°03' E 005°31'0 0.0
2017-Nov-23 23:57N 62°03' E 005°31'0 0.0
2017-Nov-23 23:30N 62°03' E 005°31'0 0.0
2017-Nov-23 22:59N 62°03' E 005°31'0 0.0
2017-Nov-23 22:29N 62°03' E 005°31'0 0.0
2017-Nov-23 21:59N 62°03' E 005°31'0 0.0
2017-Nov-23 21:26N 62°03' E 005°31'0 0.0
2017-Nov-23 20:56N 62°03' E 005°31'0 0.0
2017-Nov-23 20:28N 62°03' E 005°31'0 0.0
2017-Nov-23 19:59N 62°03' E 005°31'0 0.0
2017-Nov-23 19:30N 62°03' E 005°31'0 0.0
2017-Nov-23 18:54N 62°03' E 005°31'0 0.0
2017-Nov-23 18:30N 62°03' E 005°31'0 0.0
2017-Nov-23 17:59N 62°03' E 005°31'0 0.0
2017-Nov-23 17:30N 62°03' E 005°31'0 0.0
2017-Nov-23 17:00N 62°03' E 005°31'0 0.0
2017-Nov-23 16:30N 62°03' E 005°31'0 0.0
2017-Nov-23 16:01N 62°03' E 005°31'0 0.0
2017-Nov-23 15:29N 62°03' E 005°31'0 0.0
2017-Nov-23 14:58N 62°03' E 005°31'0 0.0
2017-Nov-23 14:23N 62°03' E 005°31'0 0.0
2017-Nov-23 13:58N 62°03' E 005°31'0 0.0
2017-Nov-23 13:28N 62°03' E 005°31'0 0.0
2017-Nov-23 12:58N 62°03' E 005°31'0 0.0
2017-Nov-23 12:28N 62°03' E 005°31'1 2.8
2017-Nov-23 12:00N 62°04' E 005°30'510.5
2017-Nov-23 11:30N 62°08' E 005°22'5 9.8
2017-Nov-23 11:00N 62°12' E 005°27'4 8.6
2017-Nov-23 10:30N 62°16' E 005°31'5 9.6
2017-Nov-23 10:00N 62°19' E 005°39'4 7.9
2017-Nov-23 09:30N 62°21' E 005°46'5 9.8
2017-Nov-23 09:00N 62°25' E 005°52'4 8.0
2017-Nov-23 08:30N 62°27' E 005°60'3 5.5
2017-Nov-23 08:00N 62°27' E 005°54'4 7.6
2017-Nov-23 07:30N 62°29' E 005°47'4 8.0
2017-Nov-23 07:00N 62°33' E 005°42'4 8.7
2017-Nov-23 06:30N 62°37' E 005°45'4 9.0
2017-Nov-23 06:00N 62°40' E 005°51'4 8.5
2017-Nov-23 05:29N 62°43' E 005°58'4 9.1
2017-Nov-23 05:00N 62°46' E 006°04'5 9.2
2017-Nov-23 04:30N 62°50' E 006°11'5 9.3
2017-Nov-23 04:00N 62°53' E 006°18'5 9.6
2017-Nov-23 03:30N 62°56' E 006°26'5 9.8
2017-Nov-23 03:00N 62°59' E 006°34'5 9.6
2017-Nov-23 02:30N 63°03' E 006°42'5 9.8
2017-Nov-23 02:00N 63°06' E 006°50'5 9.8
2017-Nov-23 01:30N 63°09' E 006°58'5 9.4
2017-Nov-23 01:00N 63°12' E 007°06'5 9.1
2017-Nov-23 00:30N 63°14' E 007°15'5 9.9
2017-Nov-23 00:00N 63°15' E 007°26'510.0
2017-Nov-22 23:31N 63°16' E 007°37'510.4
2017-Nov-22 23:00N 63°13' E 007°47'5 9.4
2017-Nov-22 22:30N 63°14' E 007°57'5 9.8
2017-Nov-22 22:00N 63°16' E 008°07'5 9.5
2017-Nov-22 21:30N 63°19' E 008°15'5 9.7
2017-Nov-22 21:00N 63°22' E 008°23'510.3
2017-Nov-22 20:30N 63°25' E 008°34'510.6
2017-Nov-22 19:59N 63°26' E 008°45'511.0
2017-Nov-22 19:30N 63°28' E 008°56'  
2017-Nov-20 00:30N 58°38' E 005°17'3 6.8
2017-Nov-20 00:00N 58°35' E 005°20'3 6.2
2017-Nov-19 23:30N 58°32' E 005°23'3 5.7
2017-Nov-19 23:01N 58°30' E 005°26'3 6.1
2017-Nov-19 22:30N 58°28' E 005°31'3 6.7
2017-Nov-19 22:00N 58°26' E 005°36'4 7.3
2017-Nov-19 21:31N 58°25' E 005°42'4 8.1
2017-Nov-19 21:01N 58°22' E 005°48'4 7.9
2017-Nov-19 20:30N 58°19' E 005°54'4 8.2
2017-Nov-19 20:01N 58°16' E 005°59'4 8.1
2017-Nov-19 19:30N 58°13' E 006°04'4 7.5
2017-Nov-19 19:00N 58°10' E 006°09'4 7.5
2017-Nov-19 18:31N 58°08' E 006°13'4 7.3
2017-Nov-19 18:00N 58°05' E 006°18'4 6.9
2017-Nov-19 17:30N 58°02' E 006°22'3 7.1
2017-Nov-19 17:00N 57°60' E 006°27'3 7.0
2017-Nov-19 16:30N 57°58' E 006°33'3 6.7
2017-Nov-19 16:00N 57°57' E 006°39'4 7.7
2017-Nov-19 15:30N 57°56' E 006°46'4 8.1
2017-Nov-19 15:00N 57°55' E 006°53'4 8.8
2017-Nov-19 14:30N 57°54' E 007°01'5 9.1
2017-Nov-19 14:00N 57°54' E 007°10'5 9.4
2017-Nov-19 13:30N 57°54' E 007°19'5 9.2
2017-Nov-19 13:00N 57°54' E 007°27'5 9.3
2017-Nov-19 12:30N 57°54' E 007°36'5 9.6
2017-Nov-19 11:59N 57°54' E 007°46'5 9.5
2017-Nov-19 11:30N 57°54' E 007°54'5 9.7
2017-Nov-19 11:00N 57°55' E 008°03'5 9.4
2017-Nov-19 10:30N 57°54' E 008°12'5 9.4
2017-Nov-19 10:00N 57°54' E 008°21'47 7.7
2017-Nov-19 03:54N 57°49' E 009°49'3 6.7
2017-Nov-19 03:30N 57°49' E 009°53'3 6.9
2017-Nov-19 03:00N 57°49' E 009°60'3 6.8
2017-Nov-19 02:30N 57°49' E 010°06'24 6.2
2017-Nov-18 22:39N 57°46' E 010°51'2 7.7
2017-Nov-18 22:26N 57°45' E 010°53'4 8.3
2017-Nov-18 21:59N 57°42' E 010°58'4 8.0
2017-Nov-18 21:30N 57°40' E 011°03'4 7.5
2017-Nov-18 21:00N 57°37' E 011°08'4 7.5
2017-Nov-18 20:30N 57°35' E 011°13'4 7.4
2017-Nov-18 20:00N 57°32' E 011°18'4 7.4
2017-Nov-18 19:30N 57°29' E 011°23'4 7.6
2017-Nov-18 19:00N 57°26' E 011°28'4 8.5
2017-Nov-18 18:30N 57°22' E 011°30'5 8.6
2017-Nov-18 17:59N 57°18' E 011°33'5 8.6
2017-Nov-18 17:24N 57°13' E 011°36'71 7.9
2017-Nov-18 08:29N 56°09' E 012°30'4 9.3
2017-Nov-18 08:00N 56°06' E 012°35'5 9.3
2017-Nov-18 07:30N 56°02' E 012°40'5 9.6
2017-Nov-18 07:00N 55°58' E 012°43'5 9.1
2017-Nov-18 06:30N 55°53' E 012°44'5 9.4
2017-Nov-18 06:00N 55°48' E 012°43'5 9.9
2017-Nov-18 05:30N 55°44' E 012°41'5 9.3
2017-Nov-18 05:00N 55°39' E 012°42'5 9.1
2017-Nov-18 04:30N 55°34' E 012°42'5 9.1
2017-Nov-18 04:00N 55°30' E 012°43'5 9.9
2017-Nov-18 03:30N 55°25' E 012°42'510.1
2017-Nov-18 03:00N 55°20' E 012°41'4 8.2
2017-Nov-18 02:30N 55°17' E 012°47'4 8.2
2017-Nov-18 02:00N 55°16' E 012°53'119 9.1
2017-Nov-17 12:56N 53°33' E 014°37'4 6.5
2017-Nov-17 12:16N 53°29' E 014°37'0 0.0
2017-Nov-17 10:45N 53°29' E 014°37'0 0.0
2017-Nov-17 10:23N 53°29' E 014°37'0 0.0
2017-Nov-17 09:56N 53°29' E 014°37'0 0.0
2017-Nov-17 09:18N 53°29' E 014°37'0 0.0
2017-Nov-17 08:22N 53°29' E 014°37'0 0.0
2017-Nov-17 06:06N 53°29' E 014°37'0 0.0
2017-Nov-17 05:55N 53°29' E 014°37'0 0.0
2017-Nov-17 05:29N 53°29' E 014°37'0 0.0
2017-Nov-17 04:59N 53°29' E 014°37'0 0.0
2017-Nov-17 04:29N 53°29' E 014°37'0 0.0
2017-Nov-17 03:59N 53°29' E 014°37'0 0.0
2017-Nov-17 03:28N 53°29' E 014°37'0 0.0
2017-Nov-17 02:58N 53°29' E 014°37'0 0.0
2017-Nov-17 02:28N 53°29' E 014°37'0 0.0
2017-Nov-17 01:58N 53°29' E 014°37'0 0.0
2017-Nov-17 01:28N 53°29' E 014°37'0 0.0
2017-Nov-17 00:57N 53°29' E 014°37'0 0.0
2017-Nov-17 00:27N 53°29' E 014°37'0 0.0
2017-Nov-16 23:57N 53°29' E 014°37'0 0.0
2017-Nov-16 23:27N 53°29' E 014°37'0 0.0
2017-Nov-16 22:56N 53°29' E 014°37'0 0.0
2017-Nov-16 22:26N 53°29' E 014°37'0 0.0
2017-Nov-16 21:56N 53°29' E 014°37'0 0.0
2017-Nov-16 21:26N 53°29' E 014°37'0 0.0
2017-Nov-16 21:00N 53°29' E 014°37'0 0.0
2017-Nov-16 20:30N 53°29' E 014°37'0 0.0
2017-Nov-16 20:00N 53°29' E 014°37'0 0.0
2017-Nov-16 19:29N 53°29' E 014°37'0 0.0
2017-Nov-16 18:58N 53°29' E 014°37'0 0.0
2017-Nov-16 18:28N 53°29' E 014°37'0 0.0
2017-Nov-16 17:58N 53°29' E 014°37'0 0.0
2017-Nov-16 17:28N 53°29' E 014°37'0 0.0
2017-Nov-16 16:57N 53°29' E 014°37'0 0.0
2017-Nov-16 16:26N 53°29' E 014°37'0 0.0
2017-Nov-16 15:56N 53°29' E 014°37'0 0.0
2017-Nov-16 15:30N 53°29' E 014°37'0 0.0
2017-Nov-16 15:00N 53°29' E 014°37'0 0.0
2017-Nov-16 14:29N 53°29' E 014°37'0 0.0
2017-Nov-16 13:59N 53°29' E 014°37'0 0.0
2017-Nov-16 13:29N 53°29' E 014°37'0 0.0
2017-Nov-16 12:59N 53°29' E 014°37'0 0.0
2017-Nov-16 12:28N 53°29' E 014°37'0 0.0
2017-Nov-16 11:58N 53°29' E 014°37'0 0.0
2017-Nov-16 11:28N 53°29' E 014°37'0 0.0
2017-Nov-16 10:57N 53°29' E 014°37'0 0.0
2017-Nov-16 10:27N 53°29' E 014°37'0 0.0
2017-Nov-16 09:57N 53°29' E 014°37'1 1.4
2017-Nov-16 09:27N 53°28' E 014°36'4 0.2
2017-Nov-15 16:48N 53°24' E 014°36'0 0.0
2017-Nov-15 16:18N 53°24' E 014°36'0 0.7
2017-Nov-15 15:56N 53°24' E 014°36'3 6.4
2017-Nov-15 15:30N 53°27' E 014°36'5 8.9
2017-Nov-15 15:00N 53°31' E 014°38'118 9.2
2017-Nov-15 02:10N 55°14' E 012°58'1 9.5
2017-Nov-15 02:00N 55°14' E 012°56'5 9.4
2017-Nov-15 01:30N 55°16' E 012°48'5 9.7
2017-Nov-15 01:00N 55°18' E 012°40'4 8.2
2017-Nov-15 00:30N 55°22' E 012°38'5 9.8
2017-Nov-15 00:01N 55°26' E 012°40'5 9.6
2017-Nov-14 23:31N 55°31' E 012°42'510.0
2017-Nov-14 23:01N 55°36' E 012°42'510.1
2017-Nov-14 22:31N 55°41' E 012°41'5 9.7
2017-Nov-14 22:00N 55°46' E 012°41'5 9.8
2017-Nov-14 21:30N 55°51' E 012°39'510.1
2017-Nov-14 21:00N 55°56' E 012°38'5 9.8
2017-Nov-14 20:30N 56°01' E 012°38'4 8.5
2017-Nov-14 20:00N 56°05' E 012°36'  
Track history (hours):
 
Tides and Currents Weather Stations Pressure Air Temp Water Temp Dewpoint Dewpoint Depression Visibility Wind Speed Wind Dir Waves Ship Positions

Zeus

Last reported at 2017-Nov-24 12:54 UTC. Time now 2017-Nov-24 13:03 UTC.
Position N 62°03' E 005°31'.

Length 89 m; draft 3.6 m.

Type: Cargo ship. MMSI: 304011025.

Date/timePositionNaut miles runAvg speedWind from/ knotsBaromVisibWave heightAir tempDewpointWater temp
2017-Nov-24 12:54N 62°03' E 005°31'0 0.0
2017-Nov-24 12:24N 62°03' E 005°31'0 0.1
2017-Nov-24 11:55N 62°03' E 005°31'0 0.0
2017-Nov-24 11:24N 62°03' E 005°31'0 0.0
2017-Nov-24 10:57N 62°03' E 005°31'0 0.0
2017-Nov-24 10:30N 62°03' E 005°31'0 0.0
2017-Nov-24 10:01N 62°03' E 005°31'0 0.0
2017-Nov-24 09:28N 62°03' E 005°31'0 0.0
2017-Nov-24 09:01N 62°03' E 005°31'0 0.0
2017-Nov-24 08:31N 62°03' E 005°31'0 0.0
2017-Nov-24 08:01N 62°03' E 005°31'0 0.0
2017-Nov-24 07:31N 62°03' E 005°31'0 0.0
2017-Nov-24 06:57N 62°03' E 005°31'0 0.0
2017-Nov-24 06:31N 62°03' E 005°31'0 0.0
2017-Nov-24 06:01N 62°03' E 005°31'0 0.1
2017-Nov-24 05:31N 62°03' E 005°31'0 0.0
2017-Nov-24 05:01N 62°03' E 005°31'0 0.0
2017-Nov-24 04:31N 62°03' E 005°31'0 0.0
2017-Nov-24 04:00N 62°03' E 005°31'0 0.0
2017-Nov-24 03:28N 62°03' E 005°31'0 0.0
2017-Nov-24 02:58N 62°03' E 005°31'0 0.0
2017-Nov-24 02:29N 62°03' E 005°31'0 0.0
2017-Nov-24 01:59N 62°03' E 005°31'0 0.0
2017-Nov-24 01:25N 62°03' E 005°31'0 0.0
2017-Nov-24 00:59N 62°03' E 005°31'0 0.0
2017-Nov-24 00:25N 62°03' E 005°31'0 0.0
2017-Nov-23 23:57N 62°03' E 005°31'0 0.0
2017-Nov-23 23:30N 62°03' E 005°31'0 0.0
2017-Nov-23 22:59N 62°03' E 005°31'0 0.0
2017-Nov-23 22:29N 62°03' E 005°31'0 0.0
2017-Nov-23 21:59N 62°03' E 005°31'0 0.0
2017-Nov-23 21:26N 62°03' E 005°31'0 0.0
2017-Nov-23 20:56N 62°03' E 005°31'0 0.0
2017-Nov-23 20:28N 62°03' E 005°31'0 0.0
2017-Nov-23 19:59N 62°03' E 005°31'0 0.0
2017-Nov-23 19:30N 62°03' E 005°31'0 0.0
2017-Nov-23 18:54N 62°03' E 005°31'0 0.0
2017-Nov-23 18:30N 62°03' E 005°31'0 0.0
2017-Nov-23 17:59N 62°03' E 005°31'0 0.0
2017-Nov-23 17:30N 62°03' E 005°31'0 0.0
2017-Nov-23 17:00N 62°03' E 005°31'0 0.0
2017-Nov-23 16:30N 62°03' E 005°31'0 0.0
2017-Nov-23 16:01N 62°03' E 005°31'0 0.0
2017-Nov-23 15:29N 62°03' E 005°31'0 0.0
2017-Nov-23 14:58N 62°03' E 005°31'0 0.0
2017-Nov-23 14:23N 62°03' E 005°31'0 0.0
2017-Nov-23 13:58N 62°03' E 005°31'0 0.0
2017-Nov-23 13:28N 62°03' E 005°31'0 0.0
2017-Nov-23 12:58N 62°03' E 005°31'0 0.0
2017-Nov-23 12:28N 62°03' E 005°31'1 2.8
2017-Nov-23 12:00N 62°04' E 005°30'510.5
2017-Nov-23 11:30N 62°08' E 005°22'5 9.8
2017-Nov-23 11:00N 62°12' E 005°27'4 8.6
2017-Nov-23 10:30N 62°16' E 005°31'5 9.6
2017-Nov-23 10:00N 62°19' E 005°39'4 7.9
2017-Nov-23 09:30N 62°21' E 005°46'5 9.8
2017-Nov-23 09:00N 62°25' E 005°52'4 8.0
2017-Nov-23 08:30N 62°27' E 005°60'3 5.5
2017-Nov-23 08:00N 62°27' E 005°54'4 7.6
2017-Nov-23 07:30N 62°29' E 005°47'4 8.0
2017-Nov-23 07:00N 62°33' E 005°42'4 8.7
2017-Nov-23 06:30N 62°37' E 005°45'4 9.0
2017-Nov-23 06:00N 62°40' E 005°51'4 8.5
2017-Nov-23 05:29N 62°43' E 005°58'4 9.1
2017-Nov-23 05:00N 62°46' E 006°04'5 9.2
2017-Nov-23 04:30N 62°50' E 006°11'5 9.3
2017-Nov-23 04:00N 62°53' E 006°18'5 9.6
2017-Nov-23 03:30N 62°56' E 006°26'5 9.8
2017-Nov-23 03:00N 62°59' E 006°34'5 9.6
2017-Nov-23 02:30N 63°03' E 006°42'5 9.8
2017-Nov-23 02:00N 63°06' E 006°50'5 9.8
2017-Nov-23 01:30N 63°09' E 006°58'5 9.4
2017-Nov-23 01:00N 63°12' E 007°06'5 9.1
2017-Nov-23 00:30N 63°14' E 007°15'5 9.9
2017-Nov-23 00:00N 63°15' E 007°26'510.0
2017-Nov-22 23:31N 63°16' E 007°37'510.4
2017-Nov-22 23:00N 63°13' E 007°47'5 9.4
2017-Nov-22 22:30N 63°14' E 007°57'5 9.8
2017-Nov-22 22:00N 63°16' E 008°07'5 9.5
2017-Nov-22 21:30N 63°19' E 008°15'5 9.7
2017-Nov-22 21:00N 63°22' E 008°23'510.3
2017-Nov-22 20:30N 63°25' E 008°34'510.6
2017-Nov-22 19:59N 63°26' E 008°45'511.0
2017-Nov-22 19:30N 63°28' E 008°56'  
2017-Nov-20 00:30N 58°38' E 005°17'3 6.8
2017-Nov-20 00:00N 58°35' E 005°20'3 6.2
2017-Nov-19 23:30N 58°32' E 005°23'3 5.7
2017-Nov-19 23:01N 58°30' E 005°26'3 6.1
2017-Nov-19 22:30N 58°28' E 005°31'3 6.7
2017-Nov-19 22:00N 58°26' E 005°36'4 7.3
2017-Nov-19 21:31N 58°25' E 005°42'4 8.1
2017-Nov-19 21:01N 58°22' E 005°48'4 7.9
2017-Nov-19 20:30N 58°19' E 005°54'4 8.2
2017-Nov-19 20:01N 58°16' E 005°59'4 8.1
2017-Nov-19 19:30N 58°13' E 006°04'4 7.5
2017-Nov-19 19:00N 58°10' E 006°09'4 7.5
2017-Nov-19 18:31N 58°08' E 006°13'4 7.3
2017-Nov-19 18:00N 58°05' E 006°18'4 6.9
2017-Nov-19 17:30N 58°02' E 006°22'3 7.1
2017-Nov-19 17:00N 57°60' E 006°27'3 7.0
2017-Nov-19 16:30N 57°58' E 006°33'3 6.7
2017-Nov-19 16:00N 57°57' E 006°39'4 7.7
2017-Nov-19 15:30N 57°56' E 006°46'4 8.1
2017-Nov-19 15:00N 57°55' E 006°53'4 8.8
2017-Nov-19 14:30N 57°54' E 007°01'5 9.1
2017-Nov-19 14:00N 57°54' E 007°10'5 9.4
2017-Nov-19 13:30N 57°54' E 007°19'5 9.2
2017-Nov-19 13:00N 57°54' E 007°27'5 9.3
2017-Nov-19 12:30N 57°54' E 007°36'5 9.6
2017-Nov-19 11:59N 57°54' E 007°46'5 9.5
2017-Nov-19 11:30N 57°54' E 007°54'5 9.7
2017-Nov-19 11:00N 57°55' E 008°03'5 9.4
2017-Nov-19 10:30N 57°54' E 008°12'5 9.4
2017-Nov-19 10:00N 57°54' E 008°21'47 7.7
2017-Nov-19 03:54N 57°49' E 009°49'3 6.7
2017-Nov-19 03:30N 57°49' E 009°53'3 6.9
2017-Nov-19 03:00N 57°49' E 009°60'3 6.8
2017-Nov-19 02:30N 57°49' E 010°06'24 6.2
2017-Nov-18 22:39N 57°46' E 010°51'2 7.7
2017-Nov-18 22:26N 57°45' E 010°53'4 8.3
2017-Nov-18 21:59N 57°42' E 010°58'4 8.0
2017-Nov-18 21:30N 57°40' E 011°03'4 7.5
2017-Nov-18 21:00N 57°37' E 011°08'4 7.5
2017-Nov-18 20:30N 57°35' E 011°13'4 7.4
2017-Nov-18 20:00N 57°32' E 011°18'4 7.4
2017-Nov-18 19:30N 57°29' E 011°23'4 7.6
2017-Nov-18 19:00N 57°26' E 011°28'4 8.5
2017-Nov-18 18:30N 57°22' E 011°30'5 8.6
2017-Nov-18 17:59N 57°18' E 011°33'5 8.6
2017-Nov-18 17:24N 57°13' E 011°36'71 7.9
2017-Nov-18 08:29N 56°09' E 012°30'4 9.3
2017-Nov-18 08:00N 56°06' E 012°35'5 9.3
2017-Nov-18 07:30N 56°02' E 012°40'5 9.6
2017-Nov-18 07:00N 55°58' E 012°43'5 9.1
2017-Nov-18 06:30N 55°53' E 012°44'5 9.4
2017-Nov-18 06:00N 55°48' E 012°43'5 9.9
2017-Nov-18 05:30N 55°44' E 012°41'5 9.3
2017-Nov-18 05:00N 55°39' E 012°42'5 9.1
2017-Nov-18 04:30N 55°34' E 012°42'5 9.1
2017-Nov-18 04:00N 55°30' E 012°43'5 9.9
2017-Nov-18 03:30N 55°25' E 012°42'510.1
2017-Nov-18 03:00N 55°20' E 012°41'4 8.2
2017-Nov-18 02:30N 55°17' E 012°47'4 8.2
2017-Nov-18 02:00N 55°16' E 012°53'119 9.1
2017-Nov-17 12:56N 53°33' E 014°37'4 6.5
2017-Nov-17 12:16N 53°29' E 014°37'0 0.0
2017-Nov-17 10:45N 53°29' E 014°37'0 0.0
2017-Nov-17 10:23N 53°29' E 014°37'0 0.0
2017-Nov-17 09:56N 53°29' E 014°37'0 0.0
2017-Nov-17 09:18N 53°29' E 014°37'0 0.0
2017-Nov-17 08:22N 53°29' E 014°37'0 0.0
2017-Nov-17 06:06N 53°29' E 014°37'0 0.0
2017-Nov-17 05:55N 53°29' E 014°37'0 0.0
2017-Nov-17 05:29N 53°29' E 014°37'0 0.0
2017-Nov-17 04:59N 53°29' E 014°37'0 0.0
2017-Nov-17 04:29N 53°29' E 014°37'0 0.0
2017-Nov-17 03:59N 53°29' E 014°37'0 0.0
2017-Nov-17 03:28N 53°29' E 014°37'0 0.0
2017-Nov-17 02:58N 53°29' E 014°37'0 0.0
2017-Nov-17 02:28N 53°29' E 014°37'0 0.0
2017-Nov-17 01:58N 53°29' E 014°37'0 0.0
2017-Nov-17 01:28N 53°29' E 014°37'0 0.0
2017-Nov-17 00:57N 53°29' E 014°37'0 0.0
2017-Nov-17 00:27N 53°29' E 014°37'0 0.0
2017-Nov-16 23:57N 53°29' E 014°37'0 0.0
2017-Nov-16 23:27N 53°29' E 014°37'0 0.0
2017-Nov-16 22:56N 53°29' E 014°37'0 0.0
2017-Nov-16 22:26N 53°29' E 014°37'0 0.0
2017-Nov-16 21:56N 53°29' E 014°37'0 0.0
2017-Nov-16 21:26N 53°29' E 014°37'0 0.0
2017-Nov-16 21:00N 53°29' E 014°37'0 0.0
2017-Nov-16 20:30N 53°29' E 014°37'0 0.0
2017-Nov-16 20:00N 53°29' E 014°37'0 0.0
2017-Nov-16 19:29N 53°29' E 014°37'0 0.0
2017-Nov-16 18:58N 53°29' E 014°37'0 0.0
2017-Nov-16 18:28N 53°29' E 014°37'0 0.0
2017-Nov-16 17:58N 53°29' E 014°37'0 0.0
2017-Nov-16 17:28N 53°29' E 014°37'0 0.0
2017-Nov-16 16:57N 53°29' E 014°37'0 0.0
2017-Nov-16 16:26N 53°29' E 014°37'0 0.0
2017-Nov-16 15:56N 53°29' E 014°37'0 0.0
2017-Nov-16 15:30N 53°29' E 014°37'0 0.0
2017-Nov-16 15:00N 53°29' E 014°37'0 0.0
2017-Nov-16 14:29N 53°29' E 014°37'0 0.0
2017-Nov-16 13:59N 53°29' E 014°37'0 0.0
2017-Nov-16 13:29N 53°29' E 014°37'0 0.0
2017-Nov-16 12:59N 53°29' E 014°37'0 0.0
2017-Nov-16 12:28N 53°29' E 014°37'0 0.0
2017-Nov-16 11:58N 53°29' E 014°37'0 0.0
2017-Nov-16 11:28N 53°29' E 014°37'0 0.0
2017-Nov-16 10:57N 53°29' E 014°37'0 0.0
2017-Nov-16 10:27N 53°29' E 014°37'0 0.0
2017-Nov-16 09:57N 53°29' E 014°37'1 1.4
2017-Nov-16 09:27N 53°28' E 014°36'4 0.2
2017-Nov-15 16:48N 53°24' E 014°36'0 0.0
2017-Nov-15 16:18N 53°24' E 014°36'0 0.7
2017-Nov-15 15:56N 53°24' E 014°36'3 6.4
2017-Nov-15 15:30N 53°27' E 014°36'5 8.9
2017-Nov-15 15:00N 53°31' E 014°38'118 9.2
2017-Nov-15 02:10N 55°14' E 012°58'1 9.5
2017-Nov-15 02:00N 55°14' E 012°56'5 9.4
2017-Nov-15 01:30N 55°16' E 012°48'5 9.7
2017-Nov-15 01:00N 55°18' E 012°40'4 8.2
2017-Nov-15 00:30N 55°22' E 012°38'5 9.8
2017-Nov-15 00:01N 55°26' E 012°40'5 9.6
2017-Nov-14 23:31N 55°31' E 012°42'510.0
2017-Nov-14 23:01N 55°36' E 012°42'510.1
2017-Nov-14 22:31N 55°41' E 012°41'5 9.7
2017-Nov-14 22:00N 55°46' E 012°41'5 9.8
2017-Nov-14 21:30N 55°51' E 012°39'510.1
2017-Nov-14 21:00N 55°56' E 012°38'5 9.8
2017-Nov-14 20:30N 56°01' E 012°38'4 8.5
2017-Nov-14 20:00N 56°05' E 012°36'  

Dump ship's entire track history